createdAt,value
2022-11-15T00:00:12.046Z,64.47
2022-11-15T00:02:57.225Z,61.72
2022-11-15T00:05:43.184Z,65.97
2022-11-15T00:08:31.451Z,62.20
2022-11-15T00:11:17.063Z,62.15
2022-11-15T00:14:05.200Z,63.75
2022-11-15T00:16:50.150Z,64.22
2022-11-15T00:19:35.957Z,72.50
2022-11-15T00:22:21.341Z,65.47
2022-11-15T00:25:07.089Z,60.47
2022-11-15T00:27:55.664Z,69.90
2022-11-15T00:30:40.787Z,61.47
2022-11-15T00:33:25.966Z,61.35
2022-11-15T00:36:12.010Z,66.47
2022-11-15T00:38:57.043Z,63.53
2022-11-15T00:41:42.406Z,66.22
2022-11-15T00:44:27.950Z,73.03
2022-11-15T00:47:14.673Z,59.92
2022-11-15T00:49:59.699Z,70.32
2022-11-15T00:52:45.308Z,66.38
2022-11-15T00:55:30.757Z,91.15
2022-11-15T00:58:16.047Z,82.18
2022-11-15T01:01:12.718Z,73.47
2022-11-15T01:04:01.288Z,97.38
2022-11-15T01:06:47.182Z,86.15
2022-11-15T01:09:32.463Z,76.57
2022-11-15T01:12:17.627Z,74.43
2022-11-15T01:15:03.954Z,64.88
2022-11-15T01:17:49.252Z,84.38
2022-11-15T01:20:34.576Z,66.22
2022-11-15T01:23:19.792Z,98.60
2022-11-15T01:26:07.618Z,94.65
2022-11-15T01:28:53.304Z,74.93
2022-11-15T01:31:39.085Z,57.45
2022-11-15T01:34:24.298Z,65.00
2022-11-15T01:37:09.621Z,68.78
2022-11-15T01:39:54.932Z,70.03
2022-11-15T01:42:40.287Z,65.00
2022-11-15T01:45:26.156Z,67.95
2022-11-15T01:48:12.058Z,64.53
2022-11-15T01:50:58.224Z,71.93
2022-11-15T01:53:47.152Z,76.53
2022-11-15T01:56:37.157Z,67.32
2022-11-15T01:59:23.912Z,64.97
2022-11-15T02:02:09.825Z,67.68
2022-11-15T02:04:55.544Z,81.72
2022-11-15T02:07:41.508Z,74.57
2022-11-15T02:10:26.896Z,78.40
2022-11-15T02:13:12.148Z,75.57
2022-11-15T02:16:30.868Z,99.63
2022-11-15T02:19:28.272Z,69.82
2022-11-15T02:22:41.091Z,67.38
2022-11-15T02:26:05.170Z,56.58
2022-11-15T02:29:11.376Z,83.35
2022-11-15T02:32:24.885Z,100.57
2022-11-15T02:35:13.174Z,66.68
2022-11-15T02:38:04.581Z,63.78
2022-11-15T02:41:20.933Z,87.13
2022-11-15T02:44:15.369Z,71.95
2022-11-15T02:47:16.174Z,102.22
2022-11-15T02:50:11.170Z,83.15
2022-11-15T02:52:57.309Z,68.30
2022-11-15T02:55:47.284Z,69.32
2022-11-15T02:58:58.043Z,61.67
2022-11-15T03:01:49.425Z,66.13
2022-11-15T03:04:34.677Z,68.95
2022-11-15T03:07:33.912Z,73.85
2022-11-15T03:10:33.620Z,70.68
2022-11-15T03:13:45.012Z,69.40
2022-11-15T03:16:50.189Z,61.38
2022-11-15T03:19:44.148Z,65.72
2022-11-15T03:22:34.555Z,68.60
2022-11-15T03:25:23.898Z,58.35
2022-11-15T03:28:12.485Z,58.28
2022-11-15T03:31:01.243Z,82.43
2022-11-15T03:36:34.682Z,82.55
2022-11-15T03:42:19.119Z,72.82
2022-11-15T03:45:16.804Z,104.05
2022-11-15T03:48:14.632Z,69.07
2022-11-15T03:51:00.335Z,70.70
2022-11-15T03:53:46.493Z,65.97
2022-11-15T03:56:32.034Z,57.05
2022-11-15T03:59:17.536Z,53.00
2022-11-15T04:02:02.826Z,58.67
2022-11-15T04:04:48.106Z,66.95
2022-11-15T04:07:33.422Z,60.30
2022-11-15T04:10:19.543Z,58.45
2022-11-15T04:13:05.166Z,88.45
2022-11-15T04:15:50.244Z,60.28
2022-11-15T04:18:35.467Z,64.28
2022-11-15T04:21:39.118Z,64.88
2022-11-15T04:24:24.237Z,64.70
2022-11-15T04:27:09.610Z,60.53
2022-11-15T04:29:54.920Z,63.05
2022-11-15T04:32:40.439Z,49.22
2022-11-15T04:35:25.897Z,72.43
2022-11-15T04:38:11.983Z,57.85
2022-11-15T04:40:57.324Z,226.07
2022-11-15T04:43:42.551Z,64.55
2022-11-15T04:46:28.217Z,53.83
2022-11-15T04:49:13.850Z,61.20
2022-11-15T04:51:59.775Z,59.25
2022-11-15T04:54:45.739Z,50.35
2022-11-15T04:57:30.967Z,53.95
2022-11-15T05:00:18.085Z,56.63
2022-11-15T05:03:22.634Z,67.10
2022-11-15T05:06:08.111Z,42.60
2022-11-15T05:08:53.998Z,61.22
2022-11-15T05:11:39.479Z,61.30
2022-11-15T05:14:24.949Z,63.85
2022-11-15T05:17:10.146Z,55.05
2022-11-15T05:19:55.466Z,78.30
2022-11-15T05:22:41.362Z,56.17
2022-11-15T05:25:27.201Z,47.55
2022-11-15T05:28:12.360Z,132.57
2022-11-15T05:31:09.271Z,127.35
2022-11-15T05:33:56.002Z,107.00
2022-11-15T05:36:48.414Z,71.95
2022-11-15T05:39:34.090Z,51.53
2022-11-15T05:42:20.631Z,61.92
2022-11-15T05:45:09.513Z,63.17
2022-11-15T05:47:58.570Z,49.20
2022-11-15T05:50:47.455Z,55.80
2022-11-15T05:53:34.063Z,46.90
2022-11-15T05:56:19.883Z,74.72
2022-11-15T05:59:05.564Z,54.47
2022-11-15T06:01:52.267Z,52.38
2022-11-15T06:04:37.749Z,68.07
2022-11-15T06:07:23.155Z,49.83
2022-11-15T06:10:09.326Z,53.13
2022-11-15T06:13:02.699Z,53.85
2022-11-15T06:15:48.509Z,52.58
2022-11-15T06:18:35.193Z,56.38
2022-11-15T06:21:20.517Z,51.45
2022-11-15T06:24:06.452Z,47.65
2022-11-15T06:26:51.861Z,57.63
2022-11-15T06:29:36.931Z,65.15
2022-11-15T06:32:22.265Z,67.72
2022-11-15T06:35:07.817Z,55.17
2022-11-15T06:37:52.840Z,56.60
2022-11-15T06:40:39.450Z,62.92
2022-11-15T06:43:24.579Z,49.28
2022-11-15T06:46:10.445Z,44.50
2022-11-15T06:48:55.524Z,38.85
2022-11-15T06:51:40.881Z,34.17
2022-11-15T06:54:26.074Z,30.83
2022-11-15T06:57:11.485Z,35.03
2022-11-15T06:59:56.695Z,33.97
2022-11-15T07:02:42.129Z,37.55
2022-11-15T07:05:28.333Z,36.50
2022-11-15T07:08:13.315Z,40.65
2022-11-15T07:11:04.338Z,35.53
2022-11-15T07:13:49.472Z,35.72
2022-11-15T07:16:34.647Z,35.00
2022-11-15T07:19:20.059Z,36.92
2022-11-15T07:22:05.475Z,37.50
2022-11-15T07:24:50.964Z,38.20
2022-11-15T07:27:36.468Z,53.67
2022-11-15T07:30:21.992Z,44.92
2022-11-15T07:33:08.639Z,41.75
2022-11-15T07:35:54.360Z,40.55
2022-11-15T07:38:42.751Z,36.80
2022-11-15T07:41:28.565Z,38.92
2022-11-15T07:44:13.767Z,43.28
2022-11-15T07:46:59.208Z,40.92
2022-11-15T07:49:44.481Z,41.10
2022-11-15T07:52:29.862Z,44.20
2022-11-15T07:55:15.316Z,46.63
2022-11-15T07:58:04.681Z,43.28
2022-11-15T08:00:49.929Z,40.42
2022-11-15T08:03:35.849Z,36.55
2022-11-15T08:06:21.195Z,39.15
2022-11-15T08:09:06.424Z,36.45
2022-11-15T08:11:55.228Z,37.17
2022-11-15T08:14:44.439Z,37.47
2022-11-15T08:17:33.696Z,38.70
2022-11-15T08:20:20.498Z,33.50
2022-11-15T08:23:06.954Z,35.13
2022-11-15T08:25:54.833Z,32.92
2022-11-15T08:28:40.076Z,31.83
2022-11-15T08:31:25.457Z,50.80
2022-11-15T08:34:10.702Z,34.67
2022-11-15T08:36:56.011Z,35.28
2022-11-15T08:39:41.476Z,35.17
2022-11-15T08:42:26.659Z,38.50
2022-11-15T08:45:15.946Z,32.78
2022-11-15T08:48:03.222Z,34.80
2022-11-15T08:50:48.465Z,32.72
2022-11-15T08:53:34.869Z,34.67
2022-11-15T08:56:20.103Z,39.50
2022-11-15T08:59:05.569Z,34.42
2022-11-15T09:01:51.119Z,42.67
2022-11-15T09:04:36.193Z,41.90
2022-11-15T09:07:21.667Z,35.03
2022-11-15T09:10:07.272Z,33.72
2022-11-15T09:12:52.783Z,32.33
2022-11-15T09:15:37.823Z,36.30
2022-11-15T09:18:23.758Z,38.45
2022-11-15T09:21:10.061Z,40.28
2022-11-15T09:24:01.954Z,35.05
2022-11-15T09:26:47.338Z,35.72
2022-11-15T09:29:32.679Z,40.05
2022-11-15T09:32:18.085Z,35.85
2022-11-15T09:35:03.983Z,40.90
2022-11-15T09:37:53.574Z,34.67
2022-11-15T09:40:41.611Z,34.90
2022-11-15T09:43:33.771Z,29.23
2022-11-15T09:46:31.990Z,34.92
2022-11-15T09:49:18.883Z,33.63
2022-11-15T09:52:11.007Z,35.33
2022-11-15T09:54:56.269Z,34.88
2022-11-15T09:57:50.736Z,33.58
2022-11-15T10:00:46.492Z,35.28
2022-11-15T10:03:31.853Z,31.08
2022-11-15T10:06:03.898Z,33.42
2022-11-15T10:08:42.778Z,31.60
2022-11-15T10:14:10.143Z,33.20
2022-11-15T10:16:52.120Z,31.80
2022-11-15T10:19:44.656Z,32.72
2022-11-15T10:22:51.807Z,32.03
2022-11-15T10:25:22.293Z,31.67
2022-11-15T10:27:55.729Z,31.98
2022-11-15T10:30:23.045Z,30.17
2022-11-15T10:35:29.134Z,29.50
2022-11-15T10:38:14.135Z,27.42
2022-11-15T10:40:45.905Z,29.52
2022-11-15T10:43:16.727Z,28.65
2022-11-15T10:45:44.587Z,29.05
2022-11-15T10:48:14.041Z,25.83
2022-11-15T10:50:46.115Z,26.10
2022-11-15T10:53:34.869Z,27.88
2022-11-15T10:56:12.377Z,26.30
2022-11-15T10:58:43.451Z,26.55
2022-11-15T11:01:22.992Z,27.10
2022-11-15T11:04:04.613Z,23.42
2022-11-15T11:06:46.800Z,24.50
2022-11-15T11:09:33.785Z,25.70
2022-11-15T11:12:01.889Z,25.88
2022-11-15T11:14:32.477Z,26.48
2022-11-15T11:17:01.779Z,26.95
2022-11-15T11:19:40.288Z,29.00
2022-11-15T11:22:21.305Z,26.17
2022-11-15T11:25:17.179Z,28.33
2022-11-15T11:28:10.983Z,29.35
2022-11-15T11:31:09.034Z,28.90
2022-11-15T11:33:39.239Z,28.45
2022-11-15T11:36:23.542Z,28.40
2022-11-15T11:39:21.855Z,28.38
2022-11-15T11:41:58.272Z,28.88
2022-11-15T11:45:04.701Z,27.95
2022-11-15T11:47:51.427Z,29.15
2022-11-15T11:50:26.806Z,30.75
2022-11-15T11:53:09.859Z,30.48
2022-11-15T11:55:51.131Z,34.33
2022-11-15T11:58:42.471Z,34.60
2022-11-15T12:01:12.714Z,32.60
2022-11-15T12:03:47.138Z,34.60
2022-11-15T12:06:25.426Z,34.42
2022-11-15T12:08:59.311Z,33.92
2022-11-15T12:11:47.637Z,34.17
2022-11-15T12:14:30.584Z,34.55
2022-11-15T12:16:58.883Z,33.30
2022-11-15T12:19:26.465Z,31.77
2022-11-15T12:21:55.986Z,31.23
2022-11-15T12:24:40.910Z,32.42
2022-11-15T12:27:26.323Z,31.10
2022-11-15T12:30:10.381Z,28.65
2022-11-15T12:32:39.409Z,32.00
2022-11-15T12:35:25.700Z,30.63
2022-11-15T12:37:56.897Z,29.33
2022-11-15T12:40:33.027Z,28.35
2022-11-15T12:43:16.418Z,30.88
2022-11-15T12:45:45.775Z,56.67
2022-11-15T12:48:18.515Z,33.95
2022-11-15T12:50:58.232Z,31.70
2022-11-15T12:53:34.127Z,32.63
2022-11-15T12:56:04.083Z,31.25
2022-11-15T12:58:44.242Z,32.88
2022-11-15T13:01:11.665Z,30.58
2022-11-15T13:04:13.579Z,58.53
2022-11-15T13:06:55.541Z,31.30
2022-11-15T13:09:37.553Z,31.55
2022-11-15T13:12:31.563Z,31.88
2022-11-15T13:15:00.456Z,32.53
2022-11-15T13:17:29.162Z,36.13
2022-11-15T13:20:18.434Z,35.63
2022-11-15T13:23:11.579Z,33.47
2022-11-15T13:26:14.113Z,35.67
2022-11-15T13:28:50.588Z,34.97
2022-11-15T13:31:37.323Z,35.38
2022-11-15T13:34:53.268Z,36.60
2022-11-15T13:37:22.894Z,33.70
2022-11-15T13:39:50.522Z,37.42
2022-11-15T13:42:21.966Z,38.25
2022-11-15T13:44:57.638Z,37.50
2022-11-15T13:47:28.140Z,38.95
2022-11-15T13:49:57.529Z,37.92
2022-11-15T13:52:32.580Z,40.28
2022-11-15T13:55:14.339Z,39.10
2022-11-15T13:57:41.121Z,38.72
2022-11-15T14:00:27.957Z,39.22
2022-11-15T14:02:56.452Z,36.85
2022-11-15T14:05:25.464Z,38.45
2022-11-15T14:08:01.882Z,34.95
2022-11-15T14:10:40.034Z,36.78
2022-11-15T14:13:31.853Z,41.50
2022-11-15T14:16:20.488Z,38.75
2022-11-15T14:18:50.428Z,40.33
2022-11-15T14:21:17.555Z,36.03
2022-11-15T14:26:35.759Z,38.58
2022-11-15T14:29:28.290Z,37.42
2022-11-15T14:32:13.169Z,44.08
2022-11-15T14:34:39.901Z,40.28
2022-11-15T14:37:17.576Z,39.85
2022-11-15T14:39:44.264Z,39.53
2022-11-15T14:42:10.964Z,40.05
2022-11-15T14:44:40.170Z,43.97
2022-11-15T14:47:09.014Z,40.78
2022-11-15T14:49:35.800Z,38.15
2022-11-15T14:52:02.556Z,40.53
2022-11-15T14:54:29.247Z,38.80
2022-11-15T14:56:55.945Z,43.05
2022-11-15T14:59:22.665Z,41.20
2022-11-15T15:01:49.365Z,40.33
2022-11-15T15:04:16.068Z,43.33
2022-11-15T15:06:42.819Z,38.97
2022-11-15T15:09:09.593Z,43.45
2022-11-15T15:11:36.282Z,45.63
2022-11-15T15:14:03.042Z,40.63
2022-11-15T15:16:29.887Z,40.65
2022-11-15T15:18:56.764Z,43.00
2022-11-15T15:21:33.572Z,46.28
2022-11-15T15:24:04.280Z,43.40
2022-11-15T15:26:34.671Z,41.85
2022-11-15T15:29:01.501Z,39.33
2022-11-15T15:31:28.199Z,38.90
2022-11-15T15:33:54.883Z,42.67
2022-11-15T15:36:21.670Z,44.13
2022-11-15T15:38:48.385Z,40.60
2022-11-15T15:41:16.999Z,38.50
2022-11-15T15:43:44.739Z,46.53
2022-11-15T15:46:14.764Z,38.95
2022-11-15T15:48:41.700Z,39.88
2022-11-15T15:51:14.318Z,39.58
2022-11-15T15:53:46.473Z,42.80
2022-11-15T15:56:13.222Z,41.13
2022-11-15T15:58:47.063Z,55.80
2022-11-15T16:01:17.873Z,43.25
2022-11-15T16:03:45.624Z,44.42
2022-11-15T16:06:34.275Z,41.50
2022-11-15T16:09:14.647Z,39.78
2022-11-15T16:11:47.431Z,36.72
2022-11-15T16:14:14.336Z,35.55
2022-11-15T16:16:41.249Z,38.67
2022-11-15T16:19:12.018Z,37.63
2022-11-15T16:21:38.728Z,38.05
2022-11-15T16:24:05.573Z,36.03
2022-11-15T16:26:35.805Z,34.75
2022-11-15T16:29:02.590Z,35.42
2022-11-15T16:31:29.320Z,37.08
2022-11-15T16:33:56.098Z,37.72
2022-11-15T16:36:30.714Z,36.42
2022-11-15T16:38:58.845Z,34.65
2022-11-15T16:41:25.940Z,36.95
2022-11-15T16:46:19.336Z,35.72
2022-11-15T16:48:46.662Z,38.25
2022-11-15T16:51:13.632Z,38.10
2022-11-15T16:53:40.451Z,35.88
2022-11-15T16:56:30.872Z,37.90
2022-11-15T16:58:59.064Z,37.35
2022-11-15T17:01:28.494Z,37.28
2022-11-15T17:03:55.653Z,36.53
2022-11-15T17:06:23.652Z,37.67
2022-11-15T17:08:50.398Z,43.92
2022-11-15T17:11:22.389Z,36.25
2022-11-15T17:13:49.689Z,36.25
2022-11-15T17:16:18.181Z,37.00
2022-11-15T17:18:45.889Z,38.70
2022-11-15T17:21:18.448Z,35.38
2022-11-15T17:23:45.684Z,34.67
2022-11-15T17:29:01.597Z,35.25
2022-11-15T17:31:30.840Z,34.47
2022-11-15T17:33:57.625Z,34.95
2022-11-15T17:36:24.413Z,34.47
2022-11-15T17:38:58.082Z,35.05
2022-11-15T17:41:27.160Z,33.90
2022-11-15T17:43:55.644Z,32.30
2022-11-15T17:46:22.457Z,34.47
2022-11-15T17:48:49.448Z,30.52
2022-11-15T17:51:18.329Z,34.40
2022-11-15T17:53:46.846Z,36.15
2022-11-15T17:56:16.250Z,33.50
2022-11-15T17:58:57.413Z,32.70
2022-11-15T18:01:29.124Z,34.70
2022-11-15T18:03:57.243Z,34.97
2022-11-15T18:06:25.188Z,36.95
2022-11-15T18:08:55.903Z,37.03
2022-11-15T18:11:28.075Z,37.80
2022-11-15T18:13:57.733Z,34.58
2022-11-15T18:16:26.884Z,33.80
2022-11-15T18:18:55.053Z,33.45
2022-11-15T18:21:23.907Z,32.15
2022-11-15T18:23:56.865Z,32.92
2022-11-15T18:26:27.641Z,32.40
2022-11-15T18:28:57.760Z,33.25
2022-11-15T18:31:27.193Z,31.55
2022-11-15T18:33:54.777Z,33.65
2022-11-15T18:36:27.742Z,32.63
2022-11-15T18:38:59.179Z,33.90
2022-11-15T18:41:28.746Z,34.45
2022-11-15T18:43:57.477Z,30.48
2022-11-15T18:46:28.644Z,32.58
2022-11-15T18:48:56.228Z,31.63
2022-11-15T18:51:25.699Z,31.13
2022-11-15T18:53:54.932Z,35.42
2022-11-15T18:56:24.726Z,33.60
2022-11-15T18:58:55.106Z,31.40
2022-11-15T19:01:26.891Z,32.97
2022-11-15T19:03:55.998Z,30.70
2022-11-15T19:06:25.353Z,30.83
2022-11-15T19:08:54.639Z,35.45
2022-11-15T19:11:28.682Z,31.20
2022-11-15T19:13:57.570Z,32.55
2022-11-15T19:16:24.469Z,30.70
2022-11-15T19:18:58.809Z,33.25
2022-11-15T19:21:26.614Z,34.67
2022-11-15T19:23:54.330Z,32.63
2022-11-15T19:26:22.692Z,31.33
2022-11-15T19:28:54.413Z,32.97
2022-11-15T19:31:23.645Z,35.90
2022-11-15T19:33:51.403Z,37.13
2022-11-15T19:36:28.760Z,34.92
2022-11-15T19:38:57.014Z,34.15
2022-11-15T19:41:24.800Z,39.15
2022-11-15T19:43:52.672Z,36.47
2022-11-15T19:46:23.552Z,44.25
2022-11-15T19:48:51.805Z,39.30
2022-11-15T19:51:23.507Z,41.97
2022-11-15T19:53:53.226Z,43.90
2022-11-15T19:56:20.409Z,38.67
2022-11-15T20:01:19.227Z,38.15
2022-11-15T20:03:46.815Z,36.78
2022-11-15T20:06:24.973Z,35.70
2022-11-15T20:08:52.524Z,35.45
2022-11-15T20:11:19.979Z,35.08
2022-11-15T20:13:48.928Z,37.80
2022-11-15T20:16:22.775Z,33.78
2022-11-15T20:18:57.583Z,33.75
2022-11-15T20:21:25.354Z,33.20
2022-11-15T20:23:52.815Z,29.63
2022-11-15T20:26:21.553Z,31.08
2022-11-15T20:28:49.560Z,28.23
2022-11-15T20:31:17.049Z,30.33
2022-11-15T20:33:44.402Z,32.17
2022-11-15T20:36:15.978Z,95.93
2022-11-15T20:38:43.641Z,36.05
2022-11-15T20:41:11.448Z,33.40
2022-11-15T20:43:38.179Z,33.63
2022-11-15T20:46:05.009Z,31.58
2022-11-15T20:48:32.405Z,33.80
2022-11-15T20:51:09.718Z,32.83
2022-11-15T20:53:36.526Z,32.42
2022-11-15T20:56:10.520Z,30.27
2022-11-15T20:58:38.174Z,31.98
2022-11-15T21:01:06.530Z,32.05
2022-11-15T21:03:33.991Z,32.90
2022-11-15T21:06:01.028Z,35.90
2022-11-15T21:08:27.720Z,37.80
2022-11-15T21:11:13.660Z,34.92
2022-11-15T21:13:40.496Z,31.38
2022-11-15T21:16:07.705Z,34.15
2022-11-15T21:21:05.802Z,43.58
2022-11-15T21:23:32.516Z,50.42
2022-11-15T21:25:59.555Z,39.83
2022-11-15T21:28:26.424Z,32.55
2022-11-15T21:30:55.059Z,29.23
2022-11-15T21:33:23.836Z,40.80
2022-11-15T21:35:51.613Z,37.90
2022-11-15T21:38:18.646Z,34.92
2022-11-15T21:40:45.989Z,33.83
2022-11-15T21:43:12.707Z,46.47
2022-11-15T21:45:39.405Z,31.88
2022-11-15T21:48:06.391Z,43.80
2022-11-15T21:50:33.458Z,65.80
2022-11-15T21:53:00.196Z,78.70
2022-11-15T21:55:26.920Z,37.33
2022-11-15T21:57:53.628Z,38.45
2022-11-15T22:00:38.872Z,64.53
2022-11-15T22:03:05.602Z,37.60
2022-11-15T22:05:32.438Z,39.25
2022-11-15T22:07:59.205Z,53.13
2022-11-15T22:10:25.904Z,49.03
2022-11-15T22:12:52.611Z,31.05
2022-11-15T22:15:19.290Z,53.40
2022-11-15T22:17:58.130Z,72.05
2022-11-15T22:23:12.206Z,39.42
2022-11-15T22:25:38.977Z,43.92
2022-11-15T22:28:05.783Z,39.92
2022-11-15T22:30:32.615Z,38.35
2022-11-15T22:32:59.365Z,42.30
2022-11-15T22:35:26.243Z,47.72
2022-11-15T22:37:53.040Z,38.85
2022-11-15T22:40:19.923Z,36.88
2022-11-15T22:42:46.765Z,39.58
2022-11-15T22:45:13.560Z,40.35
2022-11-15T22:47:40.403Z,40.40
2022-11-15T22:50:07.772Z,60.25
2022-11-15T22:52:34.588Z,83.55
2022-11-15T22:55:01.330Z,48.20
2022-11-15T22:57:28.658Z,51.00
2022-11-15T22:59:55.493Z,42.80
2022-11-15T23:02:22.328Z,54.38
2022-11-15T23:04:49.220Z,52.03
2022-11-15T23:07:16.005Z,51.20
2022-11-15T23:09:45.448Z,44.72
2022-11-15T23:12:35.814Z,44.47
2022-11-15T23:15:02.625Z,55.05
2022-11-15T23:17:29.413Z,47.13
2022-11-15T23:19:56.173Z,75.18
2022-11-15T23:22:41.770Z,41.67
2022-11-15T23:25:08.817Z,67.80
2022-11-15T23:27:35.543Z,41.97
2022-11-15T23:30:21.233Z,40.10
2022-11-15T23:33:06.506Z,48.58
2022-11-15T23:35:33.331Z,49.35
2022-11-15T23:38:00.097Z,59.58
2022-11-15T23:40:26.954Z,68.40
2022-11-15T23:42:53.721Z,54.42
2022-11-15T23:45:20.477Z,60.03
2022-11-15T23:47:47.286Z,63.10
2022-11-15T23:50:14.101Z,52.75
2022-11-15T23:52:40.909Z,57.50
2022-11-15T23:55:08.000Z,63.55
2022-11-15T23:57:34.769Z,48.45
